Time;durP1;ratioP1;P1;durP2;ratioP2;P2;SDS_P1;SDS_P2;PMS_P1;PMS_P2;Temp;Humidity;BMP_temperature;BMP_pressure;BME280_temperature;BME280_humidity;BME280_pressure;Samples;Min_cycle;Max_cycle;Signal;HPM_P1;HPM_P2
2022/01/06 00:01:02;;;;;;;5.13;1.90;;;;;;;4.12;100.00;99961.94;5049683;28;20334;-60
2022/01/06 00:03:31;;;;;;;9.40;1.73;;;;;;;4.14;99.90;99954.16;5057235;28;20242;-52
2022/01/06 00:06:02;;;;;;;5.00;1.40;;;;;;;4.19;99.03;99955.09;5062287;28;20230;-51
2022/01/06 00:08:29;;;;;;;6.13;1.93;;;;;;;4.12;99.34;99959.34;5053193;28;20236;-53
2022/01/06 00:10:55;;;;;;;3.47;1.70;;;;;;;4.09;100.00;99969.69;5044774;28;20282;-51
2022/01/06 00:13:26;;;;;;;5.90;1.43;;;;;;;4.04;99.62;99974.84;5051969;28;20713;-54
2022/01/06 00:16:13;;;;;;;9.20;1.53;;;;;;;4.02;99.29;99978.25;5032988;28;20282;-52
2022/01/06 00:24:06;;;;;;;4.27;1.70;;;;;;;3.95;100.00;99984.22;5065997;28;20307;-54
2022/01/06 00:26:32;;;;;;;6.63;1.40;;;;;;;3.83;100.00;99993.59;5058087;28;20312;-58
2022/01/06 00:28:58;;;;;;;4.33;1.77;;;;;;;3.78;100.00;99995.25;5030767;28;20837;-55
2022/01/06 00:31:25;;;;;;;3.40;1.60;;;;;;;3.53;100.00;99999.19;5046663;28;20718;-55
2022/01/06 00:33:52;;;;;;;2.47;1.50;;;;;;;3.48;100.00;100000.00;5043665;28;20740;-55
2022/01/06 00:36:18;;;;;;;2.37;1.60;;;;;;;3.30;100.00;100014.41;5050558;28;20696;-54
2022/01/06 00:38:45;;;;;;;3.20;1.47;;;;;;;3.29;100.00;100016.97;5044500;28;20298;-57
2022/01/06 00:41:11;;;;;;;2.73;1.50;;;;;;;3.14;100.00;100027.97;5055728;28;20281;-59
2022/01/06 00:43:38;;;;;;;3.97;1.97;;;;;;;3.03;100.00;100034.69;5052862;28;20235;-56
2022/01/06 00:46:04;;;;;;;3.50;1.70;;;;;;;2.84;100.00;100039.53;5056400;28;20257;-56
2022/01/06 00:48:30;;;;;;;2.27;1.30;;;;;;;2.71;100.00;100034.94;5055340;28;20235;-57
2022/01/06 00:50:58;;;;;;;2.70;1.47;;;;;;;2.68;100.00;100040.06;5061334;28;20265;-58
2022/01/06 00:53:24;;;;;;;1.87;1.53;;;;;;;2.58;100.00;100048.50;5047051;28;20265;-56
2022/01/06 00:55:51;;;;;;;4.00;1.80;;;;;;;2.59;100.00;100055.44;5037674;28;20255;-60
2022/01/06 00:58:17;;;;;;;3.63;2.07;;;;;;;2.47;100.00;100066.44;5044833;28;20293;-57
2022/01/06 01:00:43;;;;;;;2.77;2.07;;;;;;;2.38;100.00;100069.69;5059788;28;20237;-57
2022/01/06 01:03:11;;;;;;;1.57;1.40;;;;;;;2.37;100.00;100085.22;5054737;28;20238;-57
2022/01/06 01:05:38;;;;;;;5.57;2.17;;;;;;;2.34;100.00;100083.41;5064191;28;20303;-58
2022/01/06 01:08:06;;;;;;;3.93;1.73;;;;;;;2.31;100.00;100098.00;5069859;28;20240;-59
2022/01/06 01:10:32;;;;;;;4.27;2.07;;;;;;;2.21;100.00;100103.81;5056271;28;20233;-59
2022/01/06 01:12:59;;;;;;;3.87;1.83;;;;;;;2.18;100.00;100106.34;5062030;28;20234;-60
2022/01/06 01:15:27;;;;;;;3.53;1.53;;;;;;;1.97;100.00;100120.56;5048404;28;20234;-62
2022/01/06 01:17:54;;;;;;;4.00;1.70;;;;;;;1.96;100.00;100130.88;5049223;28;20238;-58
2022/01/06 01:20:21;;;;;;;4.57;1.60;;;;;;;1.84;100.00;100127.16;5054472;28;20331;-60
2022/01/06 01:22:48;;;;;;;3.40;1.63;;;;;;;1.80;100.00;100132.22;5051731;28;20249;-60
2022/01/06 01:25:16;;;;;;;5.40;1.60;;;;;;;1.69;100.00;100138.84;5060672;28;20229;-60
2022/01/06 01:27:44;;;;;;;2.73;1.57;;;;;;;1.63;100.00;100147.31;5041687;28;20238;-59
2022/01/06 01:30:14;;;;;;;2.77;1.47;;;;;;;1.47;100.00;100143.47;5048300;28;20698;-59
2022/01/06 01:32:49;;;;;;;2.40;2.13;;;;;;;1.28;100.00;100152.44;5040848;28;20651;-61
2022/01/06 01:35:15;;;;;;;4.27;2.33;;;;;;;1.28;100.00;100160.22;5052726;28;20434;-60
2022/01/06 01:37:41;;;;;;;3.90;1.47;;;;;;;1.30;100.00;100161.13;5045913;28;20239;-61
2022/01/06 01:40:13;;;;;;;2.50;1.70;;;;;;;1.25;100.00;100167.88;5044454;28;20722;-61
2022/01/06 01:42:41;;;;;;;3.17;1.40;;;;;;;1.16;100.00;100178.84;5049220;28;20965;-59
2022/01/06 01:45:09;;;;;;;3.40;1.00;;;;;;;1.11;100.00;100171.78;5039543;28;20228;-60
2022/01/06 01:47:40;;;;;;;2.83;1.57;;;;;;;1.21;100.00;100173.81;5058524;28;20324;-57
2022/01/06 01:50:12;;;;;;;2.37;1.60;;;;;;;1.17;100.00;100182.31;5040192;28;20241;-59
2022/01/06 01:52:40;;;;;;;3.83;1.80;;;;;;;1.31;100.00;100185.28;5038865;28;20234;-60
2022/01/06 01:55:07;;;;;;;6.50;1.67;;;;;;;1.37;100.00;100186.34;5050089;28;20241;-58
2022/01/06 01:57:33;;;;;;;2.17;1.40;;;;;;;1.32;100.00;100190.47;5050106;28;20238;-57
2022/01/06 02:00:06;;;;;;;1.63;1.47;;;;;;;1.39;100.00;100195.00;5048184;28;20250;-59
2022/01/06 02:02:33;;;;;;;3.20;1.27;;;;;;;1.32;100.00;100190.47;5065688;28;20330;-63
2022/01/06 02:05:00;;;;;;;2.53;1.50;;;;;;;1.46;100.00;100195.16;5050777;28;20320;-54
2022/01/06 02:07:26;;;;;;;6.53;1.83;;;;;;;1.46;100.00;100197.75;5047762;28;20284;-58
2022/01/06 02:09:52;;;;;;;1.07;1.00;;;;;;;1.41;100.00;100190.75;5057316;28;20250;-61
2022/01/06 02:12:23;;;;;;;3.80;1.80;;;;;;;1.63;100.00;100207.72;5036667;28;20262;-58
2022/01/06 02:14:50;;;;;;;2.67;1.00;;;;;;;1.67;100.00;100195.72;5046426;28;20239;-57
2022/01/06 02:17:17;;;;;;;4.43;1.17;;;;;;;1.73;100.00;100208.84;5053062;28;20283;-57
2022/01/06 02:19:52;;;;;;;2.97;2.13;;;;;;;1.70;100.00;100224.28;5047654;28;20288;-55
2022/01/06 02:22:18;;;;;;;2.30;1.40;;;;;;;1.76;100.00;100229.63;5049844;28;20346;-56
2022/01/06 02:24:44;;;;;;;1.57;1.10;;;;;;;1.71;100.00;100226.00;5052583;28;20259;-55
2022/01/06 02:27:11;;;;;;;4.20;1.43;;;;;;;1.78;100.00;100240.00;5045772;28;20238;-55
2022/01/06 02:29:38;;;;;;;5.80;1.27;;;;;;;1.64;100.00;100255.16;5043670;28;20224;-55
2022/01/06 02:32:08;;;;;;;3.40;1.10;;;;;;;1.50;100.00;100253.91;5039435;28;20247;-55
2022/01/06 02:34:34;;;;;;;3.60;1.10;;;;;;;1.55;100.00;100254.91;5040121;28;20794;-55
2022/01/06 02:37:03;;;;;;;4.27;1.60;;;;;;;1.63;100.00;100258.59;5052176;28;20327;-56
2022/01/06 02:39:30;;;;;;;2.50;1.00;;;;;;;1.63;100.00;100268.94;5054628;28;20652;-56
2022/01/06 02:41:56;;;;;;;5.23;1.30;;;;;;;1.66;100.00;100269.03;5046392;28;20247;-55
2022/01/06 02:44:24;;;;;;;4.43;1.03;;;;;;;1.71;100.00;100271.72;5041910;28;20246;-56
2022/01/06 02:46:51;;;;;;;2.67;1.07;;;;;;;1.80;100.00;100270.25;5061702;28;20835;-55
2022/01/06 02:49:17;;;;;;;1.80;1.17;;;;;;;2.04;100.00;100292.47;5049356;28;20250;-57
2022/01/06 02:51:44;;;;;;;3.23;1.63;;;;;;;2.09;96.80;100289.16;5041986;28;20257;-57
2022/01/06 02:54:12;;;;;;;2.43;1.00;;;;;;;2.08;99.23;100304.66;5041366;28;20230;-56
2022/01/06 02:56:38;;;;;;;0.90;0.90;;;;;;;2.11;95.10;100305.59;5047504;28;20239;-53
2022/01/06 02:59:05;;;;;;;3.43;1.17;;;;;;;1.97;95.05;100316.44;5030562;28;20730;-54
2022/01/06 03:01:31;;;;;;;1.80;1.10;;;;;;;2.04;92.95;100313.19;5058312;28;20308;-53
2022/01/06 03:03:57;;;;;;;4.57;0.70;;;;;;;2.09;93.38;100317.63;5060141;28;20991;-55
2022/01/06 03:06:24;;;;;;;1.40;1.23;;;;;;;1.95;94.25;100328.47;5044114;28;20241;-53
2022/01/06 03:08:50;;;;;;;3.33;1.30;;;;;;;1.90;96.07;100341.28;5053066;28;20314;-54
2022/01/06 03:11:24;;;;;;;2.40;1.00;;;;;;;1.81;96.00;100347.06;5051882;28;20242;-52
2022/01/06 03:13:51;;;;;;;2.70;1.37;;;;;;;1.92;92.11;100356.00;5038826;28;20309;-53
2022/01/06 03:16:17;;;;;;;1.60;0.87;;;;;;;1.93;89.24;100354.31;5052178;28;20371;-52
2022/01/06 03:18:43;;;;;;;1.20;1.10;;;;;;;1.89;89.96;100371.44;5058694;28;20242;-54
2022/01/06 03:21:10;;;;;;;1.67;1.00;;;;;;;1.89;89.31;100376.63;5051516;28;20260;-52
2022/01/06 03:23:36;;;;;;;8.43;1.73;;;;;;;1.92;86.26;100386.19;5039113;28;20279;-56
2022/01/06 03:26:02;;;;;;;0.80;0.80;;;;;;;1.83;85.73;100393.72;5044573;28;20238;-53
2022/01/06 03:28:30;;;;;;;2.57;1.77;;;;;;;1.88;84.03;100395.59;5053284;28;20254;-54
2022/01/06 03:30:56;;;;;;;1.47;1.10;;;;;;;1.74;85.67;100402.06;5049729;28;20265;-53
2022/01/06 03:33:23;;;;;;;2.53;1.03;;;;;;;1.69;87.23;100395.03;5044470;28;20796;-53
2022/01/06 03:35:49;;;;;;;3.60;1.00;;;;;;;1.64;84.53;100406.09;5046790;28;20253;-53
2022/01/06 03:38:16;;;;;;;1.17;1.00;;;;;;;1.54;86.60;100416.13;5046882;28;20949;-54
2022/01/06 03:40:42;;;;;;;4.10;1.03;;;;;;;1.51;84.64;100419.53;5049568;28;20412;-54
2022/01/06 03:43:09;;;;;;;0.70;0.70;;;;;;;1.53;85.01;100422.16;5037602;28;20729;-53
2022/01/06 03:45:37;;;;;;;1.80;0.90;;;;;;;1.46;84.36;100431.41;5033650;28;20319;-53
2022/01/06 03:48:04;;;;;;;0.80;0.60;;;;;;;1.40;85.59;100437.31;5046041;28;20241;-54
2022/01/06 03:50:31;;;;;;;4.37;1.20;;;;;;;1.28;84.28;100447.25;5043129;28;20708;-54
2022/01/06 03:52:57;;;;;;;2.93;0.80;;;;;;;1.21;85.46;100463.41;5049779;28;20260;-53
2022/01/06 03:55:23;;;;;;;1.53;0.80;;;;;;;1.19;85.51;100458.19;5059470;28;20244;-53
2022/01/06 03:57:50;;;;;;;0.33;0.33;;;;;;;1.19;84.82;100472.81;5065029;28;20300;-54
2022/01/06 04:00:21;;;;;;;3.27;2.13;;;;;;;1.12;84.07;100471.75;5060516;28;20244;-55
2022/01/06 04:02:50;;;;;;;1.03;0.80;;;;;;;1.13;83.77;100472.63;5059634;28;20922;-54
2022/01/06 04:05:16;;;;;;;2.87;0.97;;;;;;;1.02;82.71;100486.88;5058625;28;20225;-52
2022/01/06 04:07:43;;;;;;;0.50;0.50;;;;;;;0.98;83.73;100493.66;5050780;28;20721;-51
2022/01/06 04:10:10;;;;;;;4.20;1.47;;;;;;;1.08;82.13;100495.72;5054122;28;20279;-52
2022/01/06 04:12:38;;;;;;;0.77;0.70;;;;;;;0.93;83.12;100503.84;5053504;28;20278;-52
2022/01/06 04:15:09;;;;;;;5.17;1.30;;;;;;;1.00;82.41;100516.97;5057390;28;20230;-52
2022/01/06 04:17:35;;;;;;;1.33;0.40;;;;;;;0.90;80.84;100521.81;5064084;28;20242;-55
2022/01/06 04:20:04;;;;;;;1.53;0.77;;;;;;;0.83;82.22;100530.19;5065478;28;20346;-52
2022/01/06 04:22:31;;;;;;;1.00;1.00;;;;;;;0.91;79.70;100530.44;5062883;28;20231;-52
2022/01/06 04:24:57;;;;;;;6.13;2.13;;;;;;;0.87;79.46;100526.88;5064889;28;20246;-53
2022/01/06 04:27:23;;;;;;;4.67;0.80;;;;;;;0.80;79.92;100530.09;5052135;28;20244;-53
2022/01/06 04:29:50;;;;;;;2.83;0.43;;;;;;;0.76;81.39;100537.69;5046409;28;20259;-54
2022/01/06 04:32:16;;;;;;;1.07;0.60;;;;;;;0.79;79.87;100551.59;5061242;28;20983;-51
2022/01/06 04:34:42;;;;;;;1.13;0.50;;;;;;;0.73;79.94;100560.81;5063993;28;20267;-52
2022/01/06 04:37:10;;;;;;;0.60;0.60;;;;;;;0.77;79.17;100562.69;5060896;28;20259;-53
2022/01/06 04:39:36;;;;;;;5.43;1.00;;;;;;;0.71;78.92;100559.06;5055847;28;20247;-52
2022/01/06 04:42:03;;;;;;;1.90;0.80;;;;;;;0.67;80.26;100567.53;5053022;28;20276;-51
2022/01/06 04:44:29;;;;;;;0.40;0.40;;;;;;;0.72;77.82;100567.69;5050075;28;20307;-54
2022/01/06 04:46:56;;;;;;;1.17;0.60;;;;;;;0.73;78.00;100573.75;5048628;28;20863;-52
2022/01/06 04:49:23;;;;;;;1.80;0.77;;;;;;;0.67;78.67;100574.41;5048891;28;20262;-52
2022/01/06 04:51:49;;;;;;;2.00;0.53;;;;;;;0.58;79.56;100571.50;5051483;28;20748;-52
2022/01/06 04:54:17;;;;;;;1.90;0.60;;;;;;;0.50;80.10;100580.69;5045845;28;20334;-51
2022/01/06 04:56:43;;;;;;;1.47;0.80;;;;;;;0.51;80.91;100587.59;5052328;28;20243;-52
2022/01/06 04:59:10;;;;;;;2.10;0.80;;;;;;;0.53;80.61;100586.84;5042825;28;20230;-53
2022/01/06 05:01:36;;;;;;;1.80;0.70;;;;;;;0.51;80.65;100590.16;5056470;28;20293;-52
2022/01/06 05:04:03;;;;;;;1.63;0.80;;;;;;;0.56;80.30;100592.13;5068718;28;20289;-53
2022/01/06 05:06:30;;;;;;;1.07;0.30;;;;;;;0.46;81.59;100596.06;5052792;28;20788;-53
2022/01/06 05:08:56;;;;;;;0.70;0.40;;;;;;;0.36;81.38;100586.19;5049306;28;20251;-53
2022/01/06 05:11:24;;;;;;;4.60;0.70;;;;;;;0.46;81.54;100595.19;5049989;28;20752;-52
2022/01/06 05:13:50;;;;;;;1.03;0.77;;;;;;;0.43;81.08;100598.50;5041319;28;20245;-53
2022/01/06 05:16:16;;;;;;;2.00;0.60;;;;;;;0.47;81.67;100592.63;5065585;28;20262;-52
2022/01/06 05:18:43;;;;;;;2.47;1.03;;;;;;;0.40;81.79;100603.56;5059198;28;20239;-52
2022/01/06 05:21:09;;;;;;;0.50;0.47;;;;;;;0.29;82.87;100607.44;5061498;28;20231;-51
2022/01/06 05:23:36;;;;;;;1.27;0.73;;;;;;;0.21;83.27;100603.66;5045780;28;20244;-58
2022/01/06 05:26:02;;;;;;;3.27;1.57;;;;;;;0.26;83.34;100602.16;5059336;28;20226;-54
2022/01/06 05:28:29;;;;;;;0.93;0.73;;;;;;;0.24;83.69;100614.13;5051104;28;20276;-52
2022/01/06 05:30:56;;;;;;;2.27;0.83;;;;;;;0.23;84.09;100612.38;5052170;28;20239;-52
2022/01/06 05:33:22;;;;;;;0.90;0.90;;;;;;;0.19;83.91;100631.16;5063980;28;20239;-52
2022/01/06 05:35:48;;;;;;;2.73;0.80;;;;;;;0.20;84.72;100638.94;5058163;28;20746;-55
2022/01/06 05:38:15;;;;;;;4.77;1.00;;;;;;;0.28;84.59;100652.16;5055495;28;20292;-54
2022/01/06 05:40:41;;;;;;;1.90;0.90;;;;;;;0.22;85.50;100646.75;5052819;28;20230;-53
2022/01/06 05:43:07;;;;;;;1.27;0.80;;;;;;;0.17;85.70;100654.28;5045633;28;20715;-54
2022/01/06 05:45:35;;;;;;;2.80;1.13;;;;;;;0.12;85.70;100657.53;5054951;28;20229;-53
2022/01/06 05:48:01;;;;;;;0.73;0.53;;;;;;;0.12;87.19;100665.28;5053577;28;20235;-53
2022/01/06 05:50:28;;;;;;;1.00;0.90;;;;;;;0.29;86.22;100668.53;5042932;28;20261;-53
2022/01/06 05:52:54;;;;;;;2.57;0.90;;;;;;;0.19;87.53;100678.50;5040167;28;20245;-53
2022/01/06 05:55:21;;;;;;;1.23;0.87;;;;;;;0.18;86.31;100683.59;5043990;28;20290;-53
2022/01/06 05:57:47;;;;;;;2.70;1.40;;;;;;;0.20;86.74;100685.41;5051777;28;20231;-52
2022/01/06 06:00:14;;;;;;;4.57;2.07;;;;;;;0.20;87.08;100692.28;5047941;28;20230;-53
2022/01/06 06:02:42;;;;;;;2.73;1.10;;;;;;;0.17;87.78;100694.72;5045297;28;20259;-53
2022/01/06 06:05:09;;;;;;;0.90;0.90;;;;;;;0.19;87.85;100700.84;5045819;28;20246;-52
2022/01/06 06:07:35;;;;;;;5.17;1.40;;;;;;;0.23;90.27;100705.31;5045868;28;20306;-52
2022/01/06 06:10:01;;;;;;;2.77;1.17;;;;;;;0.24;89.82;100707.06;5063550;28;20254;-55
2022/01/06 06:12:28;;;;;;;2.80;1.20;;;;;;;0.19;88.73;100708.59;5047724;28;20292;-53
2022/01/06 06:14:54;;;;;;;3.17;1.23;;;;;;;0.31;88.98;100715.94;5046574;28;20224;-53
2022/01/06 06:17:20;;;;;;;6.07;0.80;;;;;;;0.24;90.01;100722.56;5052327;28;20282;-53
2022/01/06 06:19:48;;;;;;;3.70;1.40;;;;;;;0.24;90.38;100723.44;5039622;28;20269;-54
2022/01/06 06:22:14;;;;;;;4.27;1.23;;;;;;;0.27;92.54;100732.13;5044601;28;20268;-53
2022/01/06 06:24:40;;;;;;;1.70;1.10;;;;;;;0.26;91.96;100740.72;5053999;28;20259;-52
2022/01/06 06:27:07;;;;;;;5.17;1.17;;;;;;;0.25;92.67;100739.81;5038744;28;20254;-52
2022/01/06 06:29:33;;;;;;;2.57;1.27;;;;;;;0.29;92.34;100751.16;5045808;28;20231;-52
2022/01/06 06:31:59;;;;;;;5.83;1.40;;;;;;;0.24;92.78;100754.41;5043885;28;20251;-53
2022/01/06 06:34:26;;;;;;;3.80;1.20;;;;;;;0.29;93.74;100761.50;5044191;28;20262;-52
2022/01/06 06:36:53;;;;;;;2.20;1.10;;;;;;;0.26;94.78;100761.34;5058147;28;20258;-54
2022/01/06 06:39:20;;;;;;;9.60;1.87;;;;;;;0.21;95.43;100764.63;5044970;28;20267;-54
2022/01/06 06:41:46;;;;;;;5.27;1.50;;;;;;;0.24;95.53;100777.66;5054803;28;20329;-51
2022/01/06 06:44:12;;;;;;;1.53;1.10;;;;;;;0.31;95.41;100771.03;5045253;28;20741;-52
2022/01/06 06:46:39;;;;;;;2.77;1.03;;;;;;;0.20;96.59;100777.47;5043182;28;20299;-51
2022/01/06 06:49:05;;;;;;;3.23;1.00;;;;;;;0.19;96.19;100775.72;5055686;28;20408;-53
2022/01/06 06:51:31;;;;;;;3.17;1.20;;;;;;;0.21;96.53;100794.72;5052223;28;20291;-55
2022/01/06 06:53:59;;;;;;;1.97;1.60;;;;;;;0.20;96.63;100788.66;5038255;28;20239;-52
2022/01/06 06:56:25;;;;;;;5.27;1.50;;;;;;;0.17;97.49;100796.28;5050127;28;20813;-53
2022/01/06 06:58:52;;;;;;;2.87;1.47;;;;;;;0.32;98.63;100801.22;5046516;28;20265;-54
2022/01/06 07:01:18;;;;;;;9.77;1.33;;;;;;;0.31;97.17;100809.78;5046247;28;20300;-53
2022/01/06 07:03:44;;;;;;;2.07;1.00;;;;;;;0.22;97.10;100817.16;5041901;28;20749;-53
2022/01/06 07:06:10;;;;;;;10.47;1.83;;;;;;;0.22;97.59;100822.31;5043715;28;20239;-53
2022/01/06 07:08:37;;;;;;;4.37;1.53;;;;;;;0.23;97.22;100824.94;5034167;28;20256;-54
2022/01/06 07:11:04;;;;;;;1.03;1.00;;;;;;;0.19;97.27;100832.50;5034200;28;20246;-55
2022/01/06 07:13:31;;;;;;;4.83;1.67;;;;;;;0.30;97.70;100831.25;5049480;28;20254;-52
2022/01/06 07:15:57;;;;;;;4.23;1.67;;;;;;;0.22;97.82;100842.97;5044190;28;20266;-53
2022/01/06 07:18:23;;;;;;;2.00;1.20;;;;;;;0.15;98.02;100840.94;5057369;28;20243;-53
2022/01/06 07:20:50;;;;;;;4.83;1.43;;;;;;;0.20;98.56;100849.75;5061773;28;20234;-54
2022/01/06 07:23:17;;;;;;;3.33;1.77;;;;;;;0.20;98.85;100852.34;5051989;28;20231;-51
2022/01/06 07:25:43;;;;;;;2.47;1.07;;;;;;;0.20;98.30;100849.75;5047306;28;20857;-53
2022/01/06 07:28:11;;;;;;;2.47;1.40;;;;;;;0.12;98.91;100867.50;5047971;28;20284;-53
2022/01/06 07:30:37;;;;;;;4.27;1.37;;;;;;;0.11;100.00;100854.53;5046718;28;20236;-54
2022/01/06 07:33:03;;;;;;;6.13;1.80;;;;;;;0.16;99.75;100873.69;5051302;28;20241;-55
2022/01/06 07:35:30;;;;;;;3.77;1.60;;;;;;;0.24;99.98;100882.63;5062992;28;20230;-53
2022/01/06 07:37:56;;;;;;;2.70;1.37;;;;;;;0.09;99.83;100880.28;5046463;28;20767;-53
2022/01/06 07:40:23;;;;;;;5.60;1.70;;;;;;;0.37;100.00;100877.16;5046591;28;20238;-54
2022/01/06 07:42:51;;;;;;;3.90;1.13;;;;;;;0.28;100.00;100884.56;5050966;28;20281;-53
2022/01/06 07:45:19;;;;;;;2.80;1.00;;;;;;;0.24;100.00;100888.66;5051892;28;20316;-53
2022/01/06 07:47:56;;;;;;;4.27;1.57;;;;;;;0.17;100.00;100894.38;5047845;28;20957;-54
2022/01/06 07:50:23;;;;;;;4.97;1.43;;;;;;;0.21;100.00;100887.66;5049293;28;20289;-53
2022/01/06 07:52:50;;;;;;;9.53;1.97;;;;;;;0.17;100.00;100894.38;5040575;28;20654;-54
2022/01/06 07:55:16;;;;;;;2.40;1.60;;;;;;;0.20;100.00;100906.56;5057881;28;20649;-53
2022/01/06 07:57:42;;;;;;;3.17;1.83;;;;;;;0.15;100.00;100913.22;5063639;28;20279;-53
2022/01/06 08:00:09;;;;;;;5.20;1.50;;;;;;;0.25;100.00;100920.56;5063745;28;20294;-53
2022/01/06 08:02:37;;;;;;;1.70;1.17;;;;;;;0.29;100.00;100926.75;5064639;28;20729;-52
2022/01/06 08:05:04;;;;;;;5.17;1.23;;;;;;;0.35;99.57;100921.81;5040658;28;20266;-54
2022/01/06 08:07:30;;;;;;;6.90;1.93;;;;;;;0.31;99.83;100927.66;5051305;28;20670;-56
2022/01/06 08:09:57;;;;;;;1.77;1.27;;;;;;;0.24;100.00;100939.44;5049990;28;20230;-54
2022/01/06 08:12:23;;;;;;;2.07;1.40;;;;;;;0.30;100.00;100934.53;5040785;28;20265;-53
2022/01/06 08:14:49;;;;;;;1.97;1.70;;;;;;;0.42;99.59;100937.66;5043531;28;20264;-55
2022/01/06 08:17:16;;;;;;;4.77;1.37;;;;;;;0.32;98.77;100945.84;5041513;28;20308;-54
2022/01/06 08:19:44;;;;;;;6.47;2.10;;;;;;;0.45;98.41;100953.28;5061107;28;20231;-53
2022/01/06 08:22:11;;;;;;;3.53;1.57;;;;;;;0.39;98.97;100955.59;5047541;28;20237;-55
2022/01/06 08:24:37;;;;;;;1.23;1.10;;;;;;;0.41;99.36;100960.81;5049773;28;20963;-54
2022/01/06 08:27:08;;;;;;;3.07;1.50;;;;;;;0.51;98.79;100959.53;5053024;28;20252;-55
2022/01/06 08:29:34;;;;;;;4.17;1.30;;;;;;;0.59;98.91;100971.06;5050242;28;20577;-54
2022/01/06 08:32:01;;;;;;;3.03;1.20;;;;;;;0.65;97.82;100968.75;5046295;28;20311;-55
2022/01/06 08:34:27;;;;;;;5.47;1.57;;;;;;;0.65;98.03;100976.50;5056913;28;21431;-55
2022/01/06 08:36:55;;;;;;;5.43;1.53;;;;;;;0.76;98.63;100976.97;5050196;28;20326;-54
2022/01/06 08:39:22;;;;;;;4.23;2.33;;;;;;;0.73;97.60;100980.28;5040790;28;20258;-53
2022/01/06 08:41:49;;;;;;;3.30;1.40;;;;;;;0.73;97.16;100988.03;5040976;28;20293;-54
2022/01/06 08:44:15;;;;;;;3.43;1.30;;;;;;;0.85;96.93;100990.28;5048215;28;20234;-53
2022/01/06 08:46:42;;;;;;;2.20;1.23;;;;;;;0.93;96.37;100987.19;5051745;28;20280;-54
2022/01/06 08:49:11;;;;;;;4.60;1.47;;;;;;;1.03;95.83;100993.63;5062399;28;20906;-55
2022/01/06 08:51:38;;;;;;;5.43;1.93;;;;;;;0.98;96.01;100991.66;5052011;28;20235;-53
2022/01/06 08:54:06;;;;;;;4.40;2.03;;;;;;;1.16;94.81;101001.09;5047187;28;20246;-53
2022/01/06 08:56:33;;;;;;;5.53;1.97;;;;;;;1.22;94.84;100999.56;5062634;28;20227;-55
2022/01/06 08:58:59;;;;;;;12.10;2.63;;;;;;;1.22;93.55;101005.59;5047411;28;20249;-53
2022/01/06 09:01:25;;;;;;;3.20;1.63;;;;;;;1.32;92.98;101002.56;5047789;28;20234;-55
2022/01/06 09:03:52;;;;;;;4.10;1.83;;;;;;;1.28;92.88;101016.22;5063208;28;20249;-53
2022/01/06 09:06:20;;;;;;;3.73;1.40;;;;;;;1.25;93.18;101018.66;5063423;28;20230;-53
2022/01/06 09:08:46;;;;;;;4.20;1.60;;;;;;;1.36;92.89;101019.09;5056370;28;20309;-54
2022/01/06 09:11:14;;;;;;;2.80;1.43;;;;;;;1.36;92.51;101035.50;5060287;28;20225;-54
2022/01/06 09:13:41;;;;;;;6.37;1.43;;;;;;;1.48;92.28;101031.66;5058246;28;20266;-52
2022/01/06 09:16:08;;;;;;;3.37;1.63;;;;;;;1.43;91.45;101040.09;5051492;28;20240;-53
2022/01/06 09:18:35;;;;;;;2.60;0.97;;;;;;;1.52;91.35;101054.25;5048252;28;20231;-55
2022/01/06 09:21:02;;;;;;;5.87;1.57;;;;;;;1.48;90.83;101055.84;5046456;28;20288;-52
2022/01/06 09:23:28;;;;;;;1.77;1.13;;;;;;;1.45;91.59;101060.00;5053236;28;20876;-54
2022/01/06 09:25:55;;;;;;;3.60;1.30;;;;;;;1.51;91.69;101065.41;5054576;28;20254;-56
2022/01/06 09:28:22;;;;;;;3.20;1.40;;;;;;;1.54;90.71;101070.72;5054580;28;20790;-54
2022/01/06 09:30:50;;;;;;;8.03;1.57;;;;;;;1.58;91.75;101062.25;5054109;28;20231;-52
2022/01/06 09:33:18;;;;;;;6.23;1.63;;;;;;;1.53;92.06;101074.13;5055002;28;20228;-53
2022/01/06 09:35:44;;;;;;;4.23;1.30;;;;;;;1.57;90.97;101084.66;5042672;28;20257;-53
2022/01/06 09:38:11;;;;;;;3.47;1.47;;;;;;;1.59;90.74;101080.44;5043081;28;20292;-52
2022/01/06 09:40:38;;;;;;;2.40;1.63;;;;;;;1.65;89.79;101077.19;5050685;28;20940;-52
2022/01/06 09:43:04;;;;;;;5.07;1.97;;;;;;;1.70;89.32;101088.63;5051900;28;20890;-54
2022/01/06 09:45:34;;;;;;;2.20;1.47;;;;;;;1.71;89.56;101090.38;5051332;28;20748;-54
2022/01/06 09:48:01;;;;;;;2.77;1.27;;;;;;;1.71;89.84;101086.91;5044243;28;20262;-52
2022/01/06 09:50:27;;;;;;;1.77;1.10;;;;;;;1.74;89.45;101098.28;5053145;28;20715;-51
2022/01/06 09:52:54;;;;;;;6.10;2.43;;;;;;;1.70;89.87;101095.50;5038496;28;20723;-53
2022/01/06 09:55:21;;;;;;;2.17;1.27;;;;;;;1.81;89.75;101097.72;5041123;28;20719;-55
2022/01/06 09:57:55;;;;;;;4.47;1.30;;;;;;;1.85;89.53;101093.53;5038717;28;20732;-51
2022/01/06 10:00:22;;;;;;;4.90;1.53;;;;;;;1.98;89.14;101097.50;5037514;28;20234;-52
2022/01/06 10:02:54;;;;;;;3.53;1.60;;;;;;;1.99;88.13;101112.22;5043443;28;20251;-52
2022/01/06 10:05:20;;;;;;;2.33;1.57;;;;;;;2.02;88.38;101112.34;5045550;28;20234;-54
2022/01/06 10:07:47;;;;;;;3.67;1.13;;;;;;;2.13;86.76;101116.22;5033704;28;20280;-52
2022/01/06 10:10:15;;;;;;;2.30;1.20;;;;;;;2.06;87.48;101119.41;5047137;28;20237;-52
2022/01/06 10:12:42;;;;;;;3.17;1.07;;;;;;;2.18;86.70;101114.72;5037889;28;20226;-54
2022/01/06 10:15:18;;;;;;;5.10;1.63;;;;;;;2.25;86.38;101121.91;5045459;28;20242;-54
2022/01/06 10:17:45;;;;;;;1.77;1.37;;;;;;;2.32;86.45;101128.19;5045773;28;20273;-53
2022/01/06 10:20:15;;;;;;;3.10;1.13;;;;;;;2.32;84.16;101129.09;5041239;28;20255;-55
2022/01/06 10:22:46;;;;;;;5.70;1.80;;;;;;;2.26;85.18;101128.84;5038750;28;20241;-55
2022/01/06 10:25:13;;;;;;;4.10;1.37;;;;;;;2.22;85.69;101129.53;5046705;28;20242;-55
2022/01/06 10:27:41;;;;;;;2.47;1.27;;;;;;;2.35;84.50;101133.47;5036282;28;20239;-55
2022/01/06 10:30:08;;;;;;;2.87;1.33;;;;;;;2.23;85.14;101139.06;5051007;28;20257;-56
2022/01/06 10:32:37;;;;;;;1.80;1.10;;;;;;;2.32;83.76;101138.56;5055744;28;20227;-54
2022/01/06 10:35:05;;;;;;;3.43;1.60;;;;;;;2.34;82.58;101148.13;5053051;28;20309;-54
2022/01/06 10:37:35;;;;;;;2.03;0.90;;;;;;;2.49;83.21;101144.38;5041140;28;20269;-55
2022/01/06 10:40:05;;;;;;;3.43;1.57;;;;;;;2.47;81.57;101149.50;5043085;28;20238;-54
2022/01/06 10:42:34;;;;;;;2.40;0.97;;;;;;;2.52;82.24;101149.69;5053538;28;20288;-54
2022/01/06 10:45:05;;;;;;;6.50;1.27;;;;;;;2.48;81.76;101156.44;5043422;28;20312;-53
2022/01/06 10:47:33;;;;;;;2.13;1.40;;;;;;;2.52;82.18;101152.25;5059501;28;20735;-54
2022/01/06 10:50:10;;;;;;;2.20;1.40;;;;;;;2.57;81.48;101150.75;5051256;28;20231;-55
2022/01/06 10:52:39;;;;;;;3.63;1.57;;;;;;;2.60;82.10;101156.94;5050100;28;20231;-55
2022/01/06 10:55:14;;;;;;;3.03;1.13;;;;;;;2.69;81.84;101165.88;5040620;28;20704;-53
2022/01/06 10:57:51;;;;;;;3.60;1.90;;;;;;;2.70;81.27;101165.91;5049831;28;20810;-54
2022/01/06 11:00:18;;;;;;;5.73;1.50;;;;;;;2.67;81.44;101168.41;5040375;28;20293;-53
2022/01/06 11:02:44;;;;;;;3.37;1.40;;;;;;;2.79;79.68;101170.56;5066007;28;20945;-53
2022/01/06 11:05:10;;;;;;;5.93;1.23;;;;;;;2.87;79.57;101183.00;5046985;28;20257;-54
2022/01/06 11:07:38;;;;;;;2.10;1.40;;;;;;;2.86;79.45;101181.22;5044609;28;20323;-53
2022/01/06 11:10:13;;;;;;;3.43;1.17;;;;;;;2.90;78.17;101187.41;5051029;28;20254;-53
2022/01/06 11:12:40;;;;;;;1.80;1.03;;;;;;;2.94;77.28;101185.81;5043017;28;20761;-53
2022/01/06 11:15:07;;;;;;;5.23;1.40;;;;;;;2.85;78.92;101194.16;5047653;28;20909;-53
2022/01/06 11:17:34;;;;;;;5.30;1.23;;;;;;;3.00;77.27;101199.91;5044317;28;20235;-54
2022/01/06 11:20:00;;;;;;;6.43;1.93;;;;;;;3.04;76.26;101198.31;5063884;28;20265;-53
2022/01/06 11:22:27;;;;;;;3.83;2.27;;;;;;;2.90;77.42;101202.97;5052522;28;20257;-56
2022/01/06 11:24:56;;;;;;;3.27;1.40;;;;;;;3.01;76.21;101200.78;5057320;28;20280;-53
2022/01/06 11:27:33;;;;;;;1.53;1.20;;;;;;;3.09;74.57;101212.34;5053415;28;20302;-54
2022/01/06 11:30:09;;;;;;;1.17;1.07;;;;;;;3.12;73.03;101209.84;5064923;28;20234;-55
2022/01/06 11:32:35;;;;;;;5.03;1.50;;;;;;;3.12;73.98;101209.84;5060348;28;20229;-54
2022/01/06 11:35:03;;;;;;;2.43;0.90;;;;;;;3.10;73.95;101211.50;5062447;28;20308;-56
2022/01/06 11:37:39;;;;;;;8.80;1.30;;;;;;;3.09;72.51;101223.59;5049965;28;20239;-53